sensor_id;sensor_type;location;lat;lon;timestamp;P1;P2;P0
37290;PMS5003;23175;-33.706;151.094;2024-01-30T00:00:55;12;11;
37290;PMS5003;23175;-33.706;151.094;2024-01-30T00:03:25;22;18;
37290;PMS5003;23175;-33.706;151.094;2024-01-30T00:05:55;14;13;
37290;PMS5003;23175;-33.706;151.094;2024-01-30T00:08:24;13;11;
37290;PMS5003;23175;-33.706;151.094;2024-01-30T00:10:54;12;12;
37290;PMS5003;23175;-33.706;151.094;2024-01-30T00:13:24;17;15;
37290;PMS5003;23175;-33.706;151.094;2024-01-30T00:15:54;18;16;
37290;PMS5003;23175;-33.706;151.094;2024-01-30T00:18:24;15;15;
37290;PMS5003;23175;-33.706;151.094;2024-01-30T00:20:54;16;16;
37290;PMS5003;23175;-33.706;151.094;2024-01-30T00:23:24;20;18;
37290;PMS5003;23175;-33.706;151.094;2024-01-30T00:25:54;20;17;
37290;PMS5003;23175;-33.706;151.094;2024-01-30T00:28:24;22;17;
37290;PMS5003;23175;-33.706;151.094;2024-01-30T00:30:55;14;12;
37290;PMS5003;23175;-33.706;151.094;2024-01-30T00:33:25;18;16;
37290;PMS5003;23175;-33.706;151.094;2024-01-30T00:35:54;21;19;
37290;PMS5003;23175;-33.706;151.094;2024-01-30T00:38:25;17;15;
37290;PMS5003;23175;-33.706;151.094;2024-01-30T00:40:54;16;14;
37290;PMS5003;23175;-33.706;151.094;2024-01-30T00:43:24;14;13;
37290;PMS5003;23175;-33.706;151.094;2024-01-30T00:45:54;13;12;
37290;PMS5003;23175;-33.706;151.094;2024-01-30T00:48:24;19;19;
37290;PMS5003;23175;-33.706;151.094;2024-01-30T00:50:54;19;18;
37290;PMS5003;23175;-33.706;151.094;2024-01-30T00:53:25;12;12;
37290;PMS5003;23175;-33.706;151.094;2024-01-30T00:55:55;15;12;
37290;PMS5003;23175;-33.706;151.094;2024-01-30T00:58:25;11;10;
37290;PMS5003;23175;-33.706;151.094;2024-01-30T01:00:56;11;11;
37290;PMS5003;23175;-33.706;151.094;2024-01-30T01:03:26;12;10;
37290;PMS5003;23175;-33.706;151.094;2024-01-30T01:05:56;14;12;
37290;PMS5003;23175;-33.706;151.094;2024-01-30T01:08:26;14;10;
37290;PMS5003;23175;-33.706;151.094;2024-01-30T01:10:56;19;13;
37290;PMS5003;23175;-33.706;151.094;2024-01-30T01:13:26;11;10;
37290;PMS5003;23175;-33.706;151.094;2024-01-30T01:15:56;11;11;
37290;PMS5003;23175;-33.706;151.094;2024-01-30T01:18:27;11;11;
37290;PMS5003;23175;-33.706;151.094;2024-01-30T01:20:57;12;9;
37290;PMS5003;23175;-33.706;151.094;2024-01-30T01:23:26;8;8;
37290;PMS5003;23175;-33.706;151.094;2024-01-30T01:25:57;12;11;
37290;PMS5003;23175;-33.706;151.094;2024-01-30T01:28:27;13;11;
37290;PMS5003;23175;-33.706;151.094;2024-01-30T01:30:57;11;11;
37290;PMS5003;23175;-33.706;151.094;2024-01-30T01:33:27;16;14;
37290;PMS5003;23175;-33.706;151.094;2024-01-30T01:35:57;10;8;
37290;PMS5003;23175;-33.706;151.094;2024-01-30T01:38:28;10;8;
37290;PMS5003;23175;-33.706;151.094;2024-01-30T01:40:58;11;10;
37290;PMS5003;23175;-33.706;151.094;2024-01-30T01:43:28;8;8;
37290;PMS5003;23175;-33.706;151.094;2024-01-30T01:45:58;16;12;
37290;PMS5003;23175;-33.706;151.094;2024-01-30T01:48:28;11;11;
37290;PMS5003;23175;-33.706;151.094;2024-01-30T01:50:58;14;12;
37290;PMS5003;23175;-33.706;151.094;2024-01-30T01:53:29;11;11;
37290;PMS5003;23175;-33.706;151.094;2024-01-30T01:56:00;8;8;
37290;PMS5003;23175;-33.706;151.094;2024-01-30T01:58:30;7;7;
37290;PMS5003;23175;-33.706;151.094;2024-01-30T02:01:00;13;12;
37290;PMS5003;23175;-33.706;151.094;2024-01-30T02:03:32;10;10;
37290;PMS5003;23175;-33.706;151.094;2024-01-30T02:06:02;10;8;
37290;PMS5003;23175;-33.706;151.094;2024-01-30T02:08:33;8;8;
37290;PMS5003;23175;-33.706;151.094;2024-01-30T02:11:05;9;9;
37290;PMS5003;23175;-33.706;151.094;2024-01-30T02:13:36;7;7;
37290;PMS5003;23175;-33.706;151.094;2024-01-30T02:16:06;8;8;
37290;PMS5003;23175;-33.706;151.094;2024-01-30T02:18:36;12;10;
37290;PMS5003;23175;-33.706;151.094;2024-01-30T02:21:06;9;8;
37290;PMS5003;23175;-33.706;151.094;2024-01-30T02:23:36;13;13;
37290;PMS5003;23175;-33.706;151.094;2024-01-30T02:26:07;7;7;
37290;PMS5003;23175;-33.706;151.094;2024-01-30T02:28:37;12;11;
37290;PMS5003;23175;-33.706;151.094;2024-01-30T02:31:07;12;8;
37290;PMS5003;23175;-33.706;151.094;2024-01-30T02:33:37;11;11;
37290;PMS5003;23175;-33.706;151.094;2024-01-30T02:36:08;6;6;
37290;PMS5003;23175;-33.706;151.094;2024-01-30T02:38:38;11;8;
37290;PMS5003;23175;-33.706;151.094;2024-01-30T02:41:08;9;7;
37290;PMS5003;23175;-33.706;151.094;2024-01-30T02:43:38;9;8;
37290;PMS5003;23175;-33.706;151.094;2024-01-30T02:46:08;9;7;
37290;PMS5003;23175;-33.706;151.094;2024-01-30T02:48:38;9;7;
37290;PMS5003;23175;-33.706;151.094;2024-01-30T02:51:09;7;7;
37290;PMS5003;23175;-33.706;151.094;2024-01-30T02:53:43;10;10;
37290;PMS5003;23175;-33.706;151.094;2024-01-30T02:56:14;13;9;
37290;PMS5003;23175;-33.706;151.094;2024-01-30T02:58:44;11;9;
37290;PMS5003;23175;-33.706;151.094;2024-01-30T03:01:14;9;6;
37290;PMS5003;23175;-33.706;151.094;2024-01-30T03:03:45;10;10;
37290;PMS5003;23175;-33.706;151.094;2024-01-30T03:06:15;6;6;
37290;PMS5003;23175;-33.706;151.094;2024-01-30T03:08:45;8;8;
37290;PMS5003;23175;-33.706;151.094;2024-01-30T03:11:15;18;15;
37290;PMS5003;23175;-33.706;151.094;2024-01-30T03:13:45;9;8;
37290;PMS5003;23175;-33.706;151.094;2024-01-30T03:16:15;8;7;
37290;PMS5003;23175;-33.706;151.094;2024-01-30T03:18:45;7;5;
37290;PMS5003;23175;-33.706;151.094;2024-01-30T03:21:15;9;8;
37290;PMS5003;23175;-33.706;151.094;2024-01-30T03:23:44;10;9;
37290;PMS5003;23175;-33.706;151.094;2024-01-30T03:26:14;5;5;
37290;PMS5003;23175;-33.706;151.094;2024-01-30T03:28:44;8;6;
37290;PMS5003;23175;-33.706;151.094;2024-01-30T03:31:15;8;8;
37290;PMS5003;23175;-33.706;151.094;2024-01-30T03:33:46;7;7;
37290;PMS5003;23175;-33.706;151.094;2024-01-30T03:36:16;11;7;
37290;PMS5003;23175;-33.706;151.094;2024-01-30T03:38:46;10;5;
37290;PMS5003;23175;-33.706;151.094;2024-01-30T03:41:15;14;12;
37290;PMS5003;23175;-33.706;151.094;2024-01-30T03:43:46;9;6;
37290;PMS5003;23175;-33.706;151.094;2024-01-30T03:46:16;6;6;
37290;PMS5003;23175;-33.706;151.094;2024-01-30T03:48:47;5;4;
37290;PMS5003;23175;-33.706;151.094;2024-01-30T03:51:17;6;5;
37290;PMS5003;23175;-33.706;151.094;2024-01-30T03:53:48;7;7;
37290;PMS5003;23175;-33.706;151.094;2024-01-30T03:56:18;7;5;
37290;PMS5003;23175;-33.706;151.094;2024-01-30T03:58:48;6;6;
37290;PMS5003;23175;-33.706;151.094;2024-01-30T04:01:18;6;4;
37290;PMS5003;23175;-33.706;151.094;2024-01-30T04:03:48;7;5;
37290;PMS5003;23175;-33.706;151.094;2024-01-30T04:06:19;12;11;
37290;PMS5003;23175;-33.706;151.094;2024-01-30T04:08:49;7;5;
37290;PMS5003;23175;-33.706;151.094;2024-01-30T04:11:19;7;6;
37290;PMS5003;23175;-33.706;151.094;2024-01-30T04:13:49;7;7;
37290;PMS5003;23175;-33.706;151.094;2024-01-30T04:16:20;5;5;
37290;PMS5003;23175;-33.706;151.094;2024-01-30T04:18:50;8;5;
37290;PMS5003;23175;-33.706;151.094;2024-01-30T04:21:21;6;6;
37290;PMS5003;23175;-33.706;151.094;2024-01-30T04:23:52;4;4;
37290;PMS5003;23175;-33.706;151.094;2024-01-30T04:26:22;8;8;
37290;PMS5003;23175;-33.706;151.094;2024-01-30T04:28:53;8;7;
37290;PMS5003;23175;-33.706;151.094;2024-01-30T04:31:22;6;6;
37290;PMS5003;23175;-33.706;151.094;2024-01-30T04:33:53;5;5;
37290;PMS5003;23175;-33.706;151.094;2024-01-30T04:36:22;16;11;
37290;PMS5003;23175;-33.706;151.094;2024-01-30T04:38:53;7;7;
37290;PMS5003;23175;-33.706;151.094;2024-01-30T04:41:23;5;5;
37290;PMS5003;23175;-33.706;151.094;2024-01-30T04:43:54;8;7;
37290;PMS5003;23175;-33.706;151.094;2024-01-30T04:46:24;5;4;
37290;PMS5003;23175;-33.706;151.094;2024-01-30T04:48:54;7;7;
37290;PMS5003;23175;-33.706;151.094;2024-01-30T04:51:24;6;6;
37290;PMS5003;23175;-33.706;151.094;2024-01-30T04:53:55;8;8;
37290;PMS5003;23175;-33.706;151.094;2024-01-30T04:56:25;10;8;
37290;PMS5003;23175;-33.706;151.094;2024-01-30T04:58:55;8;7;
37290;PMS5003;23175;-33.706;151.094;2024-01-30T05:01:25;9;8;
37290;PMS5003;23175;-33.706;151.094;2024-01-30T05:03:55;16;14;
37290;PMS5003;23175;-33.706;151.094;2024-01-30T05:06:25;6;5;
37290;PMS5003;23175;-33.706;151.094;2024-01-30T05:08:56;9;7;
37290;PMS5003;23175;-33.706;151.094;2024-01-30T05:11:26;7;5;
37290;PMS5003;23175;-33.706;151.094;2024-01-30T05:13:56;7;6;
37290;PMS5003;23175;-33.706;151.094;2024-01-30T05:16:27;8;7;
37290;PMS5003;23175;-33.706;151.094;2024-01-30T05:18:57;10;6;
37290;PMS5003;23175;-33.706;151.094;2024-01-30T05:21:27;7;7;
37290;PMS5003;23175;-33.706;151.094;2024-01-30T05:23:57;14;10;
37290;PMS5003;23175;-33.706;151.094;2024-01-30T05:26:27;6;5;
37290;PMS5003;23175;-33.706;151.094;2024-01-30T05:29:02;7;6;
37290;PMS5003;23175;-33.706;151.094;2024-01-30T05:31:32;7;7;
37290;PMS5003;23175;-33.706;151.094;2024-01-30T05:34:02;9;6;
37290;PMS5003;23175;-33.706;151.094;2024-01-30T05:36:33;9;9;
37290;PMS5003;23175;-33.706;151.094;2024-01-30T05:39:03;6;6;
37290;PMS5003;23175;-33.706;151.094;2024-01-30T05:41:33;5;5;
37290;PMS5003;23175;-33.706;151.094;2024-01-30T05:44:03;9;6;
37290;PMS5003;23175;-33.706;151.094;2024-01-30T05:46:35;15;12;
37290;PMS5003;23175;-33.706;151.094;2024-01-30T05:49:06;7;7;
37290;PMS5003;23175;-33.706;151.094;2024-01-30T05:51:35;5;5;
37290;PMS5003;23175;-33.706;151.094;2024-01-30T05:54:06;7;7;
37290;PMS5003;23175;-33.706;151.094;2024-01-30T05:56:35;7;7;
37290;PMS5003;23175;-33.706;151.094;2024-01-30T05:59:05;5;5;
37290;PMS5003;23175;-33.706;151.094;2024-01-30T06:01:35;7;7;
37290;PMS5003;23175;-33.706;151.094;2024-01-30T06:04:06;11;8;
37290;PMS5003;23175;-33.706;151.094;2024-01-30T06:06:35;11;8;
37290;PMS5003;23175;-33.706;151.094;2024-01-30T06:09:06;8;7;
37290;PMS5003;23175;-33.706;151.094;2024-01-30T06:11:36;10;10;
37290;PMS5003;23175;-33.706;151.094;2024-01-30T06:14:06;9;9;
37290;PMS5003;23175;-33.706;151.094;2024-01-30T06:16:36;8;7;
37290;PMS5003;23175;-33.706;151.094;2024-01-30T06:19:06;7;7;
37290;PMS5003;23175;-33.706;151.094;2024-01-30T06:21:36;10;7;
37290;PMS5003;23175;-33.706;151.094;2024-01-30T06:24:06;18;14;
37290;PMS5003;23175;-33.706;151.094;2024-01-30T06:26:37;8;8;
37290;PMS5003;23175;-33.706;151.094;2024-01-30T06:29:07;10;8;
37290;PMS5003;23175;-33.706;151.094;2024-01-30T06:31:40;11;9;
37290;PMS5003;23175;-33.706;151.094;2024-01-30T06:34:12;9;9;
37290;PMS5003;23175;-33.706;151.094;2024-01-30T06:36:42;11;8;
37290;PMS5003;23175;-33.706;151.094;2024-01-30T06:39:12;7;6;
37290;PMS5003;23175;-33.706;151.094;2024-01-30T06:41:42;10;8;
37290;PMS5003;23175;-33.706;151.094;2024-01-30T06:44:11;11;11;
37290;PMS5003;23175;-33.706;151.094;2024-01-30T06:46:42;7;7;
37290;PMS5003;23175;-33.706;151.094;2024-01-30T06:49:12;8;6;
37290;PMS5003;23175;-33.706;151.094;2024-01-30T06:51:42;6;6;
37290;PMS5003;23175;-33.706;151.094;2024-01-30T06:54:12;10;10;
37290;PMS5003;23175;-33.706;151.094;2024-01-30T06:56:42;9;9;
37290;PMS5003;23175;-33.706;151.094;2024-01-30T06:59:12;9;8;
37290;PMS5003;23175;-33.706;151.094;2024-01-30T07:01:42;14;9;
37290;PMS5003;23175;-33.706;151.094;2024-01-30T07:04:12;13;13;
37290;PMS5003;23175;-33.706;151.094;2024-01-30T07:06:42;14;12;
37290;PMS5003;23175;-33.706;151.094;2024-01-30T07:09:12;10;8;
37290;PMS5003;23175;-33.706;151.094;2024-01-30T07:11:43;9;8;
37290;PMS5003;23175;-33.706;151.094;2024-01-30T07:14:12;10;8;
37290;PMS5003;23175;-33.706;151.094;2024-01-30T07:16:42;9;8;
37290;PMS5003;23175;-33.706;151.094;2024-01-30T07:19:12;10;6;
37290;PMS5003;23175;-33.706;151.094;2024-01-30T07:21:42;14;11;
37290;PMS5003;23175;-33.706;151.094;2024-01-30T07:24:12;8;8;
37290;PMS5003;23175;-33.706;151.094;2024-01-30T07:26:42;8;8;
37290;PMS5003;23175;-33.706;151.094;2024-01-30T07:29:12;14;13;
37290;PMS5003;23175;-33.706;151.094;2024-01-30T07:31:42;7;7;
37290;PMS5003;23175;-33.706;151.094;2024-01-30T07:34:14;16;12;
37290;PMS5003;23175;-33.706;151.094;2024-01-30T07:36:44;11;8;
37290;PMS5003;23175;-33.706;151.094;2024-01-30T07:39:14;11;10;
37290;PMS5003;23175;-33.706;151.094;2024-01-30T07:41:45;8;8;
37290;PMS5003;23175;-33.706;151.094;2024-01-30T07:44:14;8;6;
37290;PMS5003;23175;-33.706;151.094;2024-01-30T07:46:44;6;6;
37290;PMS5003;23175;-33.706;151.094;2024-01-30T07:49:15;9;8;
37290;PMS5003;23175;-33.706;151.094;2024-01-30T07:51:45;7;7;
37290;PMS5003;23175;-33.706;151.094;2024-01-30T07:54:15;11;8;
37290;PMS5003;23175;-33.706;151.094;2024-01-30T07:56:45;13;8;
37290;PMS5003;23175;-33.706;151.094;2024-01-30T07:59:15;9;8;
37290;PMS5003;23175;-33.706;151.094;2024-01-30T08:01:45;13;7;
37290;PMS5003;23175;-33.706;151.094;2024-01-30T08:04:14;9;7;
37290;PMS5003;23175;-33.706;151.094;2024-01-30T08:06:44;15;12;
37290;PMS5003;23175;-33.706;151.094;2024-01-30T08:09:15;16;12;
37290;PMS5003;23175;-33.706;151.094;2024-01-30T08:11:44;10;9;
37290;PMS5003;23175;-33.706;151.094;2024-01-30T08:14:14;9;9;
37290;PMS5003;23175;-33.706;151.094;2024-01-30T08:16:44;15;13;
37290;PMS5003;23175;-33.706;151.094;2024-01-30T08:19:14;13;9;
37290;PMS5003;23175;-33.706;151.094;2024-01-30T08:21:45;15;12;
37290;PMS5003;23175;-33.706;151.094;2024-01-30T08:24:15;20;13;
37290;PMS5003;23175;-33.706;151.094;2024-01-30T08:26:45;18;16;
37290;PMS5003;23175;-33.706;151.094;2024-01-30T08:29:15;11;11;
37290;PMS5003;23175;-33.706;151.094;2024-01-30T08:31:44;15;13;
37290;PMS5003;23175;-33.706;151.094;2024-01-30T08:34:14;13;12;
37290;PMS5003;23175;-33.706;151.094;2024-01-30T08:36:45;37;32;
37290;PMS5003;23175;-33.706;151.094;2024-01-30T08:39:15;28;26;
37290;PMS5003;23175;-33.706;151.094;2024-01-30T08:41:46;75;72;
37290;PMS5003;23175;-33.706;151.094;2024-01-30T08:44:16;49;43;
37290;PMS5003;23175;-33.706;151.094;2024-01-30T08:46:46;18;17;
37290;PMS5003;23175;-33.706;151.094;2024-01-30T08:49:16;17;16;
37290;PMS5003;23175;-33.706;151.094;2024-01-30T08:51:48;24;22;
37290;PMS5003;23175;-33.706;151.094;2024-01-30T08:54:18;37;37;
37290;PMS5003;23175;-33.706;151.094;2024-01-30T08:56:53;25;23;
37290;PMS5003;23175;-33.706;151.094;2024-01-30T08:59:23;26;22;
37290;PMS5003;23175;-33.706;151.094;2024-01-30T09:01:53;16;13;
37290;PMS5003;23175;-33.706;151.094;2024-01-30T09:04:23;17;12;
37290;PMS5003;23175;-33.706;151.094;2024-01-30T09:06:53;17;13;
37290;PMS5003;23175;-33.706;151.094;2024-01-30T09:09:23;21;17;
37290;PMS5003;23175;-33.706;151.094;2024-01-30T09:11:53;19;16;
37290;PMS5003;23175;-33.706;151.094;2024-01-30T09:14:23;14;12;
37290;PMS5003;23175;-33.706;151.094;2024-01-30T09:16:53;16;14;
37290;PMS5003;23175;-33.706;151.094;2024-01-30T09:19:23;10;8;
37290;PMS5003;23175;-33.706;151.094;2024-01-30T09:21:54;8;8;
37290;PMS5003;23175;-33.706;151.094;2024-01-30T09:24:25;14;10;
37290;PMS5003;23175;-33.706;151.094;2024-01-30T09:26:55;6;6;
37290;PMS5003;23175;-33.706;151.094;2024-01-30T09:29:25;13;12;
37290;PMS5003;23175;-33.706;151.094;2024-01-30T09:31:55;8;8;
37290;PMS5003;23175;-33.706;151.094;2024-01-30T09:34:26;8;8;
37290;PMS5003;23175;-33.706;151.094;2024-01-30T09:36:56;12;9;
37290;PMS5003;23175;-33.706;151.094;2024-01-30T09:39:27;16;13;
37290;PMS5003;23175;-33.706;151.094;2024-01-30T09:42:00;12;12;
37290;PMS5003;23175;-33.706;151.094;2024-01-30T09:44:39;8;8;
37290;PMS5003;23175;-33.706;151.094;2024-01-30T09:47:15;14;8;
37290;PMS5003;23175;-33.706;151.094;2024-01-30T09:49:46;14;10;
37290;PMS5003;23175;-33.706;151.094;2024-01-30T09:52:17;12;9;
37290;PMS5003;23175;-33.706;151.094;2024-01-30T09:54:47;16;14;
37290;PMS5003;23175;-33.706;151.094;2024-01-30T09:57:19;12;10;
37290;PMS5003;23175;-33.706;151.094;2024-01-30T09:59:49;10;9;
37290;PMS5003;23175;-33.706;151.094;2024-01-30T10:02:20;15;12;
37290;PMS5003;23175;-33.706;151.094;2024-01-30T10:04:51;9;9;
37290;PMS5003;23175;-33.706;151.094;2024-01-30T10:07:22;14;11;
37290;PMS5003;23175;-33.706;151.094;2024-01-30T10:09:53;16;11;
37290;PMS5003;23175;-33.706;151.094;2024-01-30T10:12:22;18;16;
37290;PMS5003;23175;-33.706;151.094;2024-01-30T10:14:55;9;9;
37290;PMS5003;23175;-33.706;151.094;2024-01-30T10:17:25;16;11;
37290;PMS5003;23175;-33.706;151.094;2024-01-30T10:19:56;14;10;
37290;PMS5003;23175;-33.706;151.094;2024-01-30T10:22:26;11;8;
37290;PMS5003;23175;-33.706;151.094;2024-01-30T10:24:56;13;11;
37290;PMS5003;23175;-33.706;151.094;2024-01-30T10:27:26;16;13;
37290;PMS5003;23175;-33.706;151.094;2024-01-30T10:29:56;13;10;
37290;PMS5003;23175;-33.706;151.094;2024-01-30T10:32:26;13;9;
37290;PMS5003;23175;-33.706;151.094;2024-01-30T10:34:58;12;10;
37290;PMS5003;23175;-33.706;151.094;2024-01-30T10:37:28;15;15;
37290;PMS5003;23175;-33.706;151.094;2024-01-30T10:40:00;10;8;
37290;PMS5003;23175;-33.706;151.094;2024-01-30T10:42:32;7;6;
37290;PMS5003;23175;-33.706;151.094;2024-01-30T10:45:06;8;6;
37290;PMS5003;23175;-33.706;151.094;2024-01-30T10:47:39;16;10;
37290;PMS5003;23175;-33.706;151.094;2024-01-30T10:50:11;12;8;
37290;PMS5003;23175;-33.706;151.094;2024-01-30T10:52:41;11;8;
37290;PMS5003;23175;-33.706;151.094;2024-01-30T10:55:12;14;10;
37290;PMS5003;23175;-33.706;151.094;2024-01-30T10:57:43;13;8;
37290;PMS5003;23175;-33.706;151.094;2024-01-30T11:00:14;16;12;
37290;PMS5003;23175;-33.706;151.094;2024-01-30T11:02:46;11;10;
37290;PMS5003;23175;-33.706;151.094;2024-01-30T11:05:24;17;16;
37290;PMS5003;23175;-33.706;151.094;2024-01-30T11:07:55;22;15;
37290;PMS5003;23175;-33.706;151.094;2024-01-30T11:10:26;8;8;
37290;PMS5003;23175;-33.706;151.094;2024-01-30T11:12:56;15;11;
37290;PMS5003;23175;-33.706;151.094;2024-01-30T11:15:26;7;7;
37290;PMS5003;23175;-33.706;151.094;2024-01-30T11:17:55;13;11;
37290;PMS5003;23175;-33.706;151.094;2024-01-30T11:20:26;11;11;
37290;PMS5003;23175;-33.706;151.094;2024-01-30T11:22:58;13;10;
37290;PMS5003;23175;-33.706;151.094;2024-01-30T11:25:28;11;9;
37290;PMS5003;23175;-33.706;151.094;2024-01-30T11:27:59;10;9;
37290;PMS5003;23175;-33.706;151.094;2024-01-30T11:30:29;11;8;
37290;PMS5003;23175;-33.706;151.094;2024-01-30T11:33:02;13;13;
37290;PMS5003;23175;-33.706;151.094;2024-01-30T11:35:38;10;10;
37290;PMS5003;23175;-33.706;151.094;2024-01-30T11:38:09;22;15;
37290;PMS5003;23175;-33.706;151.094;2024-01-30T11:40:41;13;11;
37290;PMS5003;23175;-33.706;151.094;2024-01-30T11:43:11;11;8;
37290;PMS5003;23175;-33.706;151.094;2024-01-30T11:45:42;12;10;
37290;PMS5003;23175;-33.706;151.094;2024-01-30T11:48:12;17;15;
37290;PMS5003;23175;-33.706;151.094;2024-01-30T11:50:43;17;14;
37290;PMS5003;23175;-33.706;151.094;2024-01-30T11:53:13;12;9;
37290;PMS5003;23175;-33.706;151.094;2024-01-30T11:55:44;11;10;
37290;PMS5003;23175;-33.706;151.094;2024-01-30T11:58:19;9;9;
37290;PMS5003;23175;-33.706;151.094;2024-01-30T12:00:54;10;7;
37290;PMS5003;23175;-33.706;151.094;2024-01-30T12:03:24;7;7;
37290;PMS5003;23175;-33.706;151.094;2024-01-30T12:05:56;12;10;
37290;PMS5003;23175;-33.706;151.094;2024-01-30T12:08:26;9;9;
37290;PMS5003;23175;-33.706;151.094;2024-01-30T12:10:56;7;6;
37290;PMS5003;23175;-33.706;151.094;2024-01-30T12:13:26;7;7;
37290;PMS5003;23175;-33.706;151.094;2024-01-30T12:15:57;12;9;
37290;PMS5003;23175;-33.706;151.094;2024-01-30T12:18:26;9;8;
37290;PMS5003;23175;-33.706;151.094;2024-01-30T12:20:58;10;10;
37290;PMS5003;23175;-33.706;151.094;2024-01-30T12:23:28;13;13;
37290;PMS5003;23175;-33.706;151.094;2024-01-30T12:25:58;13;11;
37290;PMS5003;23175;-33.706;151.094;2024-01-30T12:28:29;8;6;
37290;PMS5003;23175;-33.706;151.094;2024-01-30T12:31:01;11;8;
37290;PMS5003;23175;-33.706;151.094;2024-01-30T12:33:31;9;8;
37290;PMS5003;23175;-33.706;151.094;2024-01-30T12:36:05;7;7;
37290;PMS5003;23175;-33.706;151.094;2024-01-30T12:38:35;10;8;
37290;PMS5003;23175;-33.706;151.094;2024-01-30T12:41:07;8;8;
37290;PMS5003;23175;-33.706;151.094;2024-01-30T12:43:38;12;11;
37290;PMS5003;23175;-33.706;151.094;2024-01-30T12:46:10;10;8;
37290;PMS5003;23175;-33.706;151.094;2024-01-30T12:48:40;14;13;
37290;PMS5003;23175;-33.706;151.094;2024-01-30T12:51:10;12;11;
37290;PMS5003;23175;-33.706;151.094;2024-01-30T12:53:40;14;12;
37290;PMS5003;23175;-33.706;151.094;2024-01-30T12:56:10;13;10;
37290;PMS5003;23175;-33.706;151.094;2024-01-30T12:58:40;13;11;
37290;PMS5003;23175;-33.706;151.094;2024-01-30T13:01:11;12;12;
37290;PMS5003;23175;-33.706;151.094;2024-01-30T13:03:41;13;7;
37290;PMS5003;23175;-33.706;151.094;2024-01-30T13:06:11;10;10;
37290;PMS5003;23175;-33.706;151.094;2024-01-30T13:08:41;9;9;
37290;PMS5003;23175;-33.706;151.094;2024-01-30T13:11:11;10;8;
37290;PMS5003;23175;-33.706;151.094;2024-01-30T13:13:41;9;7;
37290;PMS5003;23175;-33.706;151.094;2024-01-30T13:16:11;12;9;
37290;PMS5003;23175;-33.706;151.094;2024-01-30T13:18:41;15;11;
37290;PMS5003;23175;-33.706;151.094;2024-01-30T13:21:12;10;7;
37290;PMS5003;23175;-33.706;151.094;2024-01-30T13:23:41;13;11;
37290;PMS5003;23175;-33.706;151.094;2024-01-30T13:26:11;10;7;
37290;PMS5003;23175;-33.706;151.094;2024-01-30T13:28:41;10;7;
37290;PMS5003;23175;-33.706;151.094;2024-01-30T13:31:11;11;7;
37290;PMS5003;23175;-33.706;151.094;2024-01-30T13:33:42;9;7;
37290;PMS5003;23175;-33.706;151.094;2024-01-30T13:36:13;16;10;
37290;PMS5003;23175;-33.706;151.094;2024-01-30T13:38:42;9;6;
37290;PMS5003;23175;-33.706;151.094;2024-01-30T13:41:12;9;8;
37290;PMS5003;23175;-33.706;151.094;2024-01-30T13:43:42;8;8;
37290;PMS5003;23175;-33.706;151.094;2024-01-30T13:46:12;8;8;
37290;PMS5003;23175;-33.706;151.094;2024-01-30T13:48:43;12;7;
37290;PMS5003;23175;-33.706;151.094;2024-01-30T13:51:13;9;9;
37290;PMS5003;23175;-33.706;151.094;2024-01-30T13:53:43;6;6;
37290;PMS5003;23175;-33.706;151.094;2024-01-30T13:56:13;4;4;
37290;PMS5003;23175;-33.706;151.094;2024-01-30T13:58:48;7;6;
37290;PMS5003;23175;-33.706;151.094;2024-01-30T14:01:19;8;8;
37290;PMS5003;23175;-33.706;151.094;2024-01-30T14:03:49;13;8;
37290;PMS5003;23175;-33.706;151.094;2024-01-30T14:06:19;10;8;
37290;PMS5003;23175;-33.706;151.094;2024-01-30T14:08:49;12;11;
37290;PMS5003;23175;-33.706;151.094;2024-01-30T14:11:19;8;8;
37290;PMS5003;23175;-33.706;151.094;2024-01-30T14:13:49;12;11;
37290;PMS5003;23175;-33.706;151.094;2024-01-30T14:16:19;10;10;
37290;PMS5003;23175;-33.706;151.094;2024-01-30T14:18:49;11;9;
37290;PMS5003;23175;-33.706;151.094;2024-01-30T14:21:19;8;8;
37290;PMS5003;23175;-33.706;151.094;2024-01-30T14:23:49;9;7;
37290;PMS5003;23175;-33.706;151.094;2024-01-30T14:26:19;7;6;
37290;PMS5003;23175;-33.706;151.094;2024-01-30T14:28:49;10;10;
37290;PMS5003;23175;-33.706;151.094;2024-01-30T14:31:20;12;7;
37290;PMS5003;23175;-33.706;151.094;2024-01-30T14:33:50;11;7;
37290;PMS5003;23175;-33.706;151.094;2024-01-30T14:36:20;13;12;
37290;PMS5003;23175;-33.706;151.094;2024-01-30T14:38:50;16;11;
37290;PMS5003;23175;-33.706;151.094;2024-01-30T14:41:20;7;6;
37290;PMS5003;23175;-33.706;151.094;2024-01-30T14:43:50;10;8;
37290;PMS5003;23175;-33.706;151.094;2024-01-30T14:46:21;10;7;
37290;PMS5003;23175;-33.706;151.094;2024-01-30T14:48:51;6;6;
37290;PMS5003;23175;-33.706;151.094;2024-01-30T14:51:23;9;9;
37290;PMS5003;23175;-33.706;151.094;2024-01-30T14:53:53;9;7;
37290;PMS5003;23175;-33.706;151.094;2024-01-30T14:56:23;7;7;
37290;PMS5003;23175;-33.706;151.094;2024-01-30T14:58:54;16;12;
37290;PMS5003;23175;-33.706;151.094;2024-01-30T15:01:26;8;8;
37290;PMS5003;23175;-33.706;151.094;2024-01-30T15:03:56;15;14;
37290;PMS5003;23175;-33.706;151.094;2024-01-30T15:06:27;7;5;
37290;PMS5003;23175;-33.706;151.094;2024-01-30T15:08:57;10;6;
37290;PMS5003;23175;-33.706;151.094;2024-01-30T15:11:26;12;8;
37290;PMS5003;23175;-33.706;151.094;2024-01-30T15:13:57;7;6;
37290;PMS5003;23175;-33.706;151.094;2024-01-30T15:16:27;5;5;
37290;PMS5003;23175;-33.706;151.094;2024-01-30T15:18:58;13;9;
37290;PMS5003;23175;-33.706;151.094;2024-01-30T15:21:28;8;7;
37290;PMS5003;23175;-33.706;151.094;2024-01-30T15:23:58;13;10;
37290;PMS5003;23175;-33.706;151.094;2024-01-30T15:26:28;10;7;
37290;PMS5003;23175;-33.706;151.094;2024-01-30T15:28:58;14;13;
37290;PMS5003;23175;-33.706;151.094;2024-01-30T15:31:28;7;7;
37290;PMS5003;23175;-33.706;151.094;2024-01-30T15:33:58;9;9;
37290;PMS5003;23175;-33.706;151.094;2024-01-30T15:36:29;14;9;
37290;PMS5003;23175;-33.706;151.094;2024-01-30T15:39:00;8;8;
37290;PMS5003;23175;-33.706;151.094;2024-01-30T15:41:30;10;9;
37290;PMS5003;23175;-33.706;151.094;2024-01-30T15:43:59;9;7;
37290;PMS5003;23175;-33.706;151.094;2024-01-30T15:46:30;9;8;
37290;PMS5003;23175;-33.706;151.094;2024-01-30T15:49:00;10;7;
37290;PMS5003;23175;-33.706;151.094;2024-01-30T15:51:30;8;8;
37290;PMS5003;23175;-33.706;151.094;2024-01-30T15:54:00;6;6;
37290;PMS5003;23175;-33.706;151.094;2024-01-30T15:56:30;8;8;
37290;PMS5003;23175;-33.706;151.094;2024-01-30T15:59:00;7;6;
37290;PMS5003;23175;-33.706;151.094;2024-01-30T16:01:30;7;7;
37290;PMS5003;23175;-33.706;151.094;2024-01-30T16:04:00;10;8;
37290;PMS5003;23175;-33.706;151.094;2024-01-30T16:06:30;10;8;